Time;durP1;ratioP1;P1;durP2;ratioP2;P2;SDS_P1;SDS_P2;PMS_P1;PMS_P2;Temp;Humidity;BMP_temperature;BMP_pressure;BME280_temperature;BME280_humidity;BME280_pressure;Samples;Min_cycle;Max_cycle;Signal;HPM_P1;HPM_P2
2022/09/29 00:01:59;;;;;;;2.53;1.48;;;12.00;99.90;;;;;;5039483;28;20496;-70
2022/09/29 00:04:25;;;;;;;1.65;0.80;;;11.80;99.90;;;;;;5054369;28;20068;-72
2022/09/29 00:06:50;;;;;;;1.75;0.40;;;11.70;99.90;;;;;;5056605;28;20037;-70
2022/09/29 00:09:16;;;;;;;2.28;0.10;;;11.40;99.90;;;;;;5054783;28;20621;-69
2022/09/29 00:11:42;;;;;;;0.63;0.25;;;11.50;99.90;;;;;;5054420;28;20530;-69
2022/09/29 00:14:08;;;;;;;0.10;0.10;;;11.60;99.90;;;;;;5054992;28;20049;-69
2022/09/29 00:16:34;;;;;;;0.28;0.20;;;11.50;99.90;;;;;;5052575;28;20041;-69
2022/09/29 00:19:00;;;;;;;0.10;0.10;;;11.50;99.90;;;;;;5056806;28;20051;-68
2022/09/29 00:21:26;;;;;;;0.40;0.20;;;11.60;99.90;;;;;;5056701;28;20041;-69
2022/09/29 00:23:51;;;;;;;0.00;0.00;;;11.60;99.90;;;;;;5057041;28;20040;-68
2022/09/29 00:26:20;;;;;;;0.25;0.10;;;11.50;99.90;;;;;;5055674;28;20036;-68
2022/09/29 00:28:52;;;;;;;0.10;0.10;;;11.40;99.90;;;;;;5056828;28;20040;-68
2022/09/29 00:31:19;;;;;;;1.30;0.05;;;11.40;99.90;;;;;;5056878;28;20037;-68
2022/09/29 00:33:45;;;;;;;0.38;0.10;;;11.30;99.90;;;;;;5056822;28;20492;-68
2022/09/29 00:36:13;;;;;;;0.10;0.05;;;11.60;99.90;;;;;;5056773;28;20149;-68
2022/09/29 00:38:40;;;;;;;0.20;0.03;;;11.50;99.90;;;;;;5072065;28;20037;-68
2022/09/29 00:41:07;;;;;;;0.17;0.03;;;11.60;99.90;;;;;;5056735;28;20044;-68
2022/09/29 00:43:57;;;;;;;0.00;0.00;;;11.60;99.90;;;;;;5055361;28;20396;-69
2022/09/29 00:46:28;;;;;;;0.00;0.00;;;11.50;99.90;;;;;;5056521;28;20044;-68
2022/09/29 00:49:01;;;;;;;0.17;0.10;;;11.50;99.90;;;;;;5054992;28;20032;-68
2022/09/29 00:51:30;;;;;;;0.38;0.10;;;11.40;99.90;;;;;;5055204;28;20133;-69
2022/09/29 00:53:57;;;;;;;0.08;0.08;;;11.40;99.90;;;;;;5056361;28;20044;-69
2022/09/29 00:56:24;;;;;;;0.60;0.00;;;11.50;99.90;;;;;;5056261;28;20052;-69
2022/09/29 00:59:01;;;;;;;0.55;0.10;;;11.50;99.90;;;;;;5055104;28;20044;-68
2022/09/29 01:01:30;;;;;;;0.30;0.10;;;11.30;99.90;;;;;;5054810;28;20477;-68
2022/09/29 01:04:02;;;;;;;0.80;0.77;;;11.30;99.90;;;;;;5054973;28;20064;-68
2022/09/29 01:06:44;;;;;;;0.40;0.40;;;11.40;99.90;;;;;;5056240;28;20090;-69
2022/09/29 01:09:21;;;;;;;1.95;0.90;;;11.40;99.90;;;;;;5054798;28;20807;-68
2022/09/29 01:11:47;;;;;;;0.52;0.10;;;11.30;99.90;;;;;;5054643;28;20128;-68
2022/09/29 01:14:13;;;;;;;0.00;0.00;;;11.40;99.90;;;;;;5055756;28;20468;-69
2022/09/29 01:16:41;;;;;;;0.20;0.00;;;11.30;99.90;;;;;;5055777;28;20049;-68
2022/09/29 01:19:27;;;;;;;0.00;0.00;;;11.20;99.90;;;;;;5055757;28;20041;-68
2022/09/29 01:22:18;;;;;;;0.10;0.03;;;11.20;99.90;;;;;;5055994;28;20098;-68
2022/09/29 01:25:00;;;;;;;0.00;0.00;;;11.20;99.90;;;;;;5056056;28;20048;-69
2022/09/29 01:27:45;;;;;;;0.00;0.00;;;11.20;99.90;;;;;;5055987;28;20037;-68
2022/09/29 01:30:19;;;;;;;0.00;0.00;;;11.30;99.90;;;;;;5054495;28;20041;-69
2022/09/29 01:33:18;;;;;;;0.10;0.10;;;11.40;99.90;;;;;;5055830;28;20033;-69
2022/09/29 01:36:04;;;;;;;2.80;0.10;;;11.30;99.90;;;;;;5055635;28;20032;-69
2022/09/29 01:38:33;;;;;;;0.00;0.00;;;11.30;99.90;;;;;;5055556;28;20045;-68
2022/09/29 01:41:20;;;;;;;0.03;0.00;;;11.20;99.90;;;;;;5055599;28;20447;-68
2022/09/29 01:43:54;;;;;;;0.00;0.00;;;11.20;99.90;;;;;;5055610;28;20057;-68
2022/09/29 01:46:27;;;;;;;0.10;0.10;;;11.30;99.90;;;;;;5053964;28;20123;-68
2022/09/29 01:48:55;;;;;;;0.00;0.00;;;11.20;99.90;;;;;;5055355;28;20060;-69
2022/09/29 01:51:29;;;;;;;0.10;0.10;;;11.20;99.90;;;;;;5053864;28;20040;-68
2022/09/29 01:54:01;;;;;;;0.10;0.10;;;11.20;99.90;;;;;;5053792;28;20044;-69
2022/09/29 01:56:36;;;;;;;0.10;0.10;;;11.20;99.90;;;;;;5054955;28;20056;-68
2022/09/29 01:59:09;;;;;;;0.20;0.20;;;11.20;99.90;;;;;;5054863;28;20124;-69
2022/09/29 02:01:39;;;;;;;0.65;0.50;;;11.20;99.90;;;;;;5055248;28;20127;-69
2022/09/29 02:04:13;;;;;;;0.10;0.10;;;11.10;99.90;;;;;;5055276;28;20041;-68
2022/09/29 02:06:53;;;;;;;0.28;0.13;;;11.10;99.90;;;;;;5053630;28;20524;-67
2022/09/29 02:09:24;;;;;;;0.22;0.17;;;11.00;99.90;;;;;;5054617;28;20036;-68
2022/09/29 02:11:52;;;;;;;1.27;0.10;;;11.10;99.90;;;;;;5053710;28;20064;-68
2022/09/29 02:14:26;;;;;;;0.10;0.10;;;11.20;99.90;;;;;;5054368;28;20037;-68
2022/09/29 02:17:18;;;;;;;0.80;0.80;;;11.00;99.90;;;;;;5054911;28;20132;-67
2022/09/29 02:19:45;;;;;;;0.45;0.20;;;11.00;99.90;;;;;;5054803;28;20037;-68
2022/09/29 02:22:11;;;;;;;0.17;0.10;;;11.00;99.90;;;;;;5054724;28;20037;-67
2022/09/29 02:24:37;;;;;;;0.10;0.10;;;10.90;99.90;;;;;;5054651;28;20064;-69
2022/09/29 02:27:04;;;;;;;0.10;0.08;;;10.90;99.90;;;;;;5054725;28;20079;-69
2022/09/29 02:29:32;;;;;;;0.40;0.10;;;10.90;99.90;;;;;;5054729;28;20043;-67
2022/09/29 02:32:01;;;;;;;0.47;0.15;;;10.90;99.90;;;;;;5054481;28;20099;-67
2022/09/29 02:34:32;;;;;;;0.40;0.20;;;11.00;99.90;;;;;;5054225;28;20057;-67
2022/09/29 02:37:04;;;;;;;0.70;0.20;;;10.90;99.90;;;;;;5052629;28;20052;-68
2022/09/29 02:39:34;;;;;;;0.38;0.10;;;10.90;99.90;;;;;;5053642;28;20064;-68
2022/09/29 02:42:41;;;;;;;0.38;0.30;;;10.80;99.90;;;;;;5052349;28;20443;-68
2022/09/29 02:45:32;;;;;;;1.17;0.20;;;10.80;99.90;;;;;;5052199;28;20388;-67
2022/09/29 02:48:08;;;;;;;1.23;0.80;;;10.80;99.90;;;;;;5053357;28;20087;-67
2022/09/29 02:51:00;;;;;;;1.40;0.20;;;10.80;99.90;;;;;;5053183;28;20049;-69
2022/09/29 02:53:51;;;;;;;1.05;0.40;;;10.80;99.90;;;;;;5051954;28;20039;-69
2022/09/29 02:56:39;;;;;;;0.93;0.50;;;10.70;99.90;;;;;;5053333;28;20056;-69
2022/09/29 02:59:19;;;;;;;0.10;0.10;;;10.70;99.90;;;;;;5053561;28;20036;-69
2022/09/29 03:02:02;;;;;;;1.98;0.70;;;10.60;99.90;;;;;;5052155;28;20171;-68
2022/09/29 03:04:29;;;;;;;1.38;0.63;;;10.70;99.90;;;;;;5052979;28;20037;-67
2022/09/29 03:06:54;;;;;;;0.98;0.30;;;10.70;99.90;;;;;;5053288;28;20029;-69
2022/09/29 03:09:20;;;;;;;0.38;0.20;;;10.60;99.90;;;;;;5052001;28;20121;-69
2022/09/29 03:11:46;;;;;;;0.30;0.22;;;10.40;99.90;;;;;;5053165;28;20095;-67
2022/09/29 03:14:12;;;;;;;3.10;0.40;;;10.40;99.90;;;;;;5053052;28;20040;-69
2022/09/29 03:16:38;;;;;;;1.95;1.15;;;10.40;99.90;;;;;;5052820;28;20147;-67
2022/09/29 03:19:04;;;;;;;0.63;0.25;;;10.50;99.90;;;;;;5052735;28;20041;-67
2022/09/29 03:21:31;;;;;;;1.15;0.57;;;10.30;99.90;;;;;;5053009;28;20080;-67
2022/09/29 03:23:57;;;;;;;0.50;0.40;;;10.30;99.90;;;;;;5052763;28;20063;-68
2022/09/29 03:26:25;;;;;;;1.00;0.50;;;10.30;99.90;;;;;;5051968;28;20032;-69
2022/09/29 03:28:52;;;;;;;0.82;0.40;;;10.30;99.90;;;;;;5053071;28;20450;-69
2022/09/29 03:31:18;;;;;;;0.43;0.17;;;10.30;99.90;;;;;;5052679;28;20029;-67
2022/09/29 03:33:44;;;;;;;2.72;0.28;;;10.30;99.90;;;;;;5053034;28;20033;-69
2022/09/29 03:36:13;;;;;;;0.30;0.30;;;10.30;99.90;;;;;;5009680;28;1239124;-68
2022/09/29 03:38:39;;;;;;;1.23;0.45;;;10.30;99.90;;;;;;5053393;28;20040;-67
2022/09/29 03:41:06;;;;;;;1.52;0.38;;;10.30;99.90;;;;;;5053514;28;20400;-67
2022/09/29 03:43:31;;;;;;;1.00;0.30;;;10.20;99.90;;;;;;5053559;28;20099;-67
2022/09/29 03:45:57;;;;;;;0.63;0.40;;;10.40;99.90;;;;;;5053504;28;20508;-67
2022/09/29 03:48:24;;;;;;;0.60;0.20;;;10.30;99.90;;;;;;5053568;28;20068;-67
2022/09/29 03:50:52;;;;;;;0.20;0.20;;;;;;;;;;5052268;28;20036;-67
2022/09/29 03:53:18;;;;;;;0.30;0.30;;;10.10;99.90;;;;;;5052268;28;20072;-67
2022/09/29 03:55:48;;;;;;;0.77;0.40;;;10.10;99.90;;;;;;5053327;28;20551;-68
2022/09/29 03:58:15;;;;;;;0.30;0.30;;;10.10;99.90;;;;;;5053380;28;20072;-69
2022/09/29 04:00:41;;;;;;;2.80;0.32;;;10.10;99.90;;;;;;5053489;28;20051;-68
2022/09/29 04:03:07;;;;;;;1.17;0.40;;;10.10;99.90;;;;;;5053435;28;20049;-67
2022/09/29 04:05:37;;;;;;;0.40;0.20;;;10.10;99.90;;;;;;5053227;28;20075;-68
2022/09/29 04:08:07;;;;;;;0.45;0.38;;;10.00;99.90;;;;;;5053012;28;20080;-68
2022/09/29 04:10:37;;;;;;;1.17;0.33;;;10.10;99.90;;;;;;5051896;28;20040;-68
2022/09/29 04:13:03;;;;;;;0.38;0.28;;;9.90;99.90;;;;;;5051928;28;20404;-68
2022/09/29 04:15:29;;;;;;;0.88;0.40;;;10.00;99.90;;;;;;5051150;28;20045;-67
2022/09/29 04:17:55;;;;;;;2.10;0.32;;;9.90;99.90;;;;;;5043980;28;20525;-67
2022/09/29 04:20:21;;;;;;;0.65;0.30;;;10.00;99.90;;;;;;5030608;28;20036;-68
2022/09/29 04:22:47;;;;;;;1.95;0.40;;;9.90;99.90;;;;;;5032124;28;20034;-67
2022/09/29 04:25:12;;;;;;;0.28;0.28;;;9.90;99.90;;;;;;5033209;28;20060;-68
2022/09/29 04:27:38;;;;;;;1.92;0.40;;;9.90;99.90;;;;;;5033125;28;20488;-69
2022/09/29 04:30:05;;;;;;;2.92;0.68;;;10.00;99.90;;;;;;5033143;28;20116;-67
2022/09/29 04:32:31;;;;;;;2.33;0.60;;;9.90;99.90;;;;;;5033302;28;20068;-67
2022/09/29 04:34:57;;;;;;;0.60;0.40;;;9.90;99.90;;;;;;5032006;28;20171;-67
2022/09/29 04:37:23;;;;;;;2.75;0.25;;;9.90;99.90;;;;;;5034184;28;20147;-68
2022/09/29 04:39:51;;;;;;;1.58;0.50;;;10.00;99.90;;;;;;5036913;28;20143;-67
2022/09/29 04:42:17;;;;;;;1.15;0.40;;;10.00;99.90;;;;;;5036718;28;20048;-67
2022/09/29 04:44:43;;;;;;;0.85;0.30;;;10.10;99.90;;;;;;5041766;28;20047;-68
2022/09/29 04:47:09;;;;;;;4.00;0.38;;;10.10;99.90;;;;;;5055254;28;20045;-67
2022/09/29 04:49:35;;;;;;;0.30;0.30;;;10.20;99.90;;;;;;5056544;28;20399;-69
2022/09/29 04:52:00;;;;;;;1.10;0.40;;;10.20;99.90;;;;;;5056440;28;20471;-67
2022/09/29 04:54:31;;;;;;;2.92;0.60;;;10.30;99.90;;;;;;5054991;28;20048;-67
2022/09/29 04:56:57;;;;;;;3.38;0.70;;;10.20;99.90;;;;;;5056483;28;20073;-67
2022/09/29 04:59:23;;;;;;;2.45;0.50;;;10.30;99.90;;;;;;5056544;28;20040;-69
2022/09/29 05:01:49;;;;;;;1.95;0.25;;;10.10;99.90;;;;;;5056405;28;20035;-67
2022/09/29 05:04:15;;;;;;;3.75;0.90;;;10.20;99.90;;;;;;5056163;28;20078;-67
2022/09/29 05:06:40;;;;;;;0.50;0.30;;;10.10;99.90;;;;;;5056280;28;20191;-67
2022/09/29 05:09:07;;;;;;;0.22;0.20;;;10.10;99.90;;;;;;5054784;28;20045;-67
2022/09/29 05:11:33;;;;;;;5.72;0.43;;;10.10;99.90;;;;;;5056179;28;20120;-69
2022/09/29 05:13:59;;;;;;;1.05;0.47;;;10.00;99.90;;;;;;5056162;28;20037;-67
2022/09/29 05:16:25;;;;;;;1.38;0.50;;;10.10;99.90;;;;;;5055835;28;20132;-67
2022/09/29 05:18:52;;;;;;;1.70;0.55;;;10.10;99.90;;;;;;5055670;28;20029;-67
2022/09/29 05:21:18;;;;;;;1.25;0.50;;;10.00;99.90;;;;;;5055783;28;20041;-67
2022/09/29 05:23:43;;;;;;;3.42;0.50;;;10.00;99.90;;;;;;5055713;28;20515;-67
2022/09/29 05:26:11;;;;;;;1.00;0.50;;;10.10;99.90;;;;;;5055671;28;20452;-67
2022/09/29 05:28:38;;;;;;;2.63;0.60;;;10.20;99.90;;;;;;5055529;28;20036;-67
2022/09/29 05:31:07;;;;;;;1.10;0.60;;;10.10;99.90;;;;;;5054565;28;20116;-67
2022/09/29 05:33:33;;;;;;;0.85;0.50;;;10.10;99.90;;;;;;5054474;28;20584;-69
2022/09/29 05:35:59;;;;;;;1.75;0.50;;;10.10;99.90;;;;;;5054709;28;20126;-67
2022/09/29 05:38:25;;;;;;;1.40;0.40;;;10.10;99.90;;;;;;5052984;28;20079;-67
2022/09/29 05:40:52;;;;;;;0.30;0.30;;;10.10;99.90;;;;;;5053788;28;20504;-67
2022/09/29 05:43:19;;;;;;;1.15;0.50;;;10.10;99.90;;;;;;5052283;28;20080;-67
2022/09/29 05:45:45;;;;;;;1.05;0.57;;;10.00;99.90;;;;;;5053699;28;20116;-68
2022/09/29 05:48:10;;;;;;;1.60;0.70;;;10.00;99.90;;;;;;5052531;28;20651;-67
2022/09/29 05:50:45;;;;;;;0.70;0.40;;;10.10;99.90;;;;;;5053611;28;20051;-67
2022/09/29 05:53:11;;;;;;;0.88;0.43;;;10.20;99.90;;;;;;5052133;28;20496;-67
2022/09/29 05:55:37;;;;;;;1.52;0.45;;;10.10;99.90;;;;;;5054464;28;20041;-67
2022/09/29 05:58:04;;;;;;;3.75;0.30;;;10.10;99.90;;;;;;5054015;28;20041;-68
2022/09/29 06:00:32;;;;;;;2.63;0.77;;;10.10;99.90;;;;;;5051806;28;20824;-68
2022/09/29 06:03:00;;;;;;;1.92;0.50;;;10.10;99.90;;;;;;5052859;28;20040;-67
2022/09/29 06:05:27;;;;;;;0.70;0.50;;;10.10;99.90;;;;;;5053107;28;20051;-68
2022/09/29 06:07:54;;;;;;;0.98;0.40;;;10.20;99.90;;;;;;5052199;28;20036;-68
2022/09/29 06:10:21;;;;;;;0.93;0.40;;;10.30;99.90;;;;;;5052009;28;20041;-69
2022/09/29 06:12:47;;;;;;;2.88;0.45;;;10.30;99.90;;;;;;5045423;28;20420;-69
2022/09/29 06:15:12;;;;;;;1.00;0.50;;;10.30;99.90;;;;;;5043709;28;20045;-69
2022/09/29 06:17:38;;;;;;;0.90;0.50;;;10.40;99.90;;;;;;5032388;28;20570;-68
2022/09/29 06:20:06;;;;;;;0.88;0.40;;;10.30;99.90;;;;;;5032168;28;20497;-68
2022/09/29 06:22:32;;;;;;;1.40;0.68;;;10.40;99.90;;;;;;5033696;28;20578;-69
2022/09/29 06:24:58;;;;;;;0.52;0.35;;;10.30;99.90;;;;;;5034553;28;20497;-68
2022/09/29 06:27:24;;;;;;;0.93;0.52;;;10.40;99.90;;;;;;5033497;28;20109;-68
2022/09/29 06:29:49;;;;;;;8.23;0.80;;;10.50;99.90;;;;;;5034641;28;20056;-68
2022/09/29 06:32:15;;;;;;;4.28;0.60;;;10.40;99.90;;;;;;5034013;28;20041;-69
2022/09/29 06:37:34;;;;;;;0.70;0.40;;;10.50;99.90;;;;;;5033027;28;20060;-68
2022/09/29 06:40:06;;;;;;;1.33;0.30;;;10.50;99.90;;;;;;5033730;28;20045;-69
2022/09/29 06:42:32;;;;;;;5.82;0.57;;;10.50;99.90;;;;;;5033445;28;20386;-68
2022/09/29 06:44:58;;;;;;;12.02;3.67;;;10.50;99.90;;;;;;5032299;28;20040;-68
2022/09/29 06:47:24;;;;;;;5.50;1.40;;;10.50;99.90;;;;;;5034541;28;20041;-68
2022/09/29 06:49:50;;;;;;;4.40;1.42;;;10.50;99.90;;;;;;5034471;28;20046;-69
2022/09/29 06:52:16;;;;;;;3.25;1.23;;;10.30;99.90;;;;;;5034432;28;20052;-68
2022/09/29 06:54:42;;;;;;;2.47;0.90;;;10.30;99.90;;;;;;5047933;28;20032;-68
2022/09/29 06:57:08;;;;;;;3.28;1.00;;;10.30;99.90;;;;;;5054194;28;20060;-68
2022/09/29 06:59:34;;;;;;;4.32;0.95;;;10.20;99.90;;;;;;5054046;28;20036;-68
2022/09/29 07:02:00;;;;;;;2.67;1.10;;;10.20;99.90;;;;;;5054354;28;20045;-69
2022/09/29 07:04:26;;;;;;;4.45;0.68;;;10.20;99.90;;;;;;5054229;28;20040;-69
2022/09/29 07:06:52;;;;;;;1.85;0.57;;;10.20;99.90;;;;;;5054194;28;20043;-68
2022/09/29 07:09:19;;;;;;;3.05;0.60;;;10.20;99.90;;;;;;5053915;28;20045;-69
2022/09/29 07:11:47;;;;;;;3.35;0.55;;;10.20;99.90;;;;;;5054049;28;20047;-68
2022/09/29 07:14:14;;;;;;;1.95;0.60;;;10.20;99.90;;;;;;5054173;28;20080;-68
2022/09/29 07:16:39;;;;;;;1.30;0.40;;;10.20;99.90;;;;;;5054316;28;20052;-68
2022/09/29 07:19:05;;;;;;;3.97;0.77;;;10.20;99.90;;;;;;5052701;28;20116;-68
2022/09/29 07:21:31;;;;;;;2.38;0.75;;;10.30;99.90;;;;;;5053737;28;20037;-68
2022/09/29 07:23:56;;;;;;;2.60;0.50;;;10.30;99.90;;;;;;5053675;28;20028;-69
2022/09/29 07:26:22;;;;;;;1.88;0.57;;;10.30;99.90;;;;;;5053707;28;20087;-68
2022/09/29 07:28:48;;;;;;;1.42;0.50;;;10.30;99.90;;;;;;5053251;28;20037;-69
2022/09/29 07:31:19;;;;;;;4.43;0.60;;;10.30;99.90;;;;;;5052473;28;20049;-67
2022/09/29 07:33:47;;;;;;;1.52;0.60;;;10.20;99.90;;;;;;5053802;28;20114;-67
2022/09/29 07:36:15;;;;;;;1.80;0.57;;;10.50;99.90;;;;;;5053597;28;20059;-67
2022/09/29 07:38:44;;;;;;;1.60;0.45;;;10.60;99.90;;;;;;5051552;28;20487;-67
2022/09/29 07:41:11;;;;;;;4.38;0.85;;;10.60;99.90;;;;;;5053399;28;20033;-68
2022/09/29 07:43:38;;;;;;;1.13;0.80;;;10.90;99.90;;;;;;5062351;28;20390;-67
2022/09/29 07:46:05;;;;;;;0.50;0.50;;;10.80;99.90;;;;;;5064046;28;20215;-68
2022/09/29 07:48:32;;;;;;;5.32;0.73;;;10.80;99.90;;;;;;5033305;28;20076;-68
2022/09/29 07:51:14;;;;;;;4.90;0.70;;;10.80;99.90;;;;;;5034738;28;20090;-67
2022/09/29 07:53:44;;;;;;;1.67;0.75;;;10.80;99.90;;;;;;5041367;28;20056;-67
2022/09/29 07:56:20;;;;;;;3.00;2.22;;;10.80;99.90;;;;;;5048009;28;20045;-67
2022/09/29 07:58:48;;;;;;;4.55;1.73;;;10.80;99.90;;;;;;5049997;28;20048;-67
2022/09/29 08:01:15;;;;;;;5.20;3.13;;;10.80;99.90;;;;;;5050473;28;20037;-67
2022/09/29 08:03:43;;;;;;;2.80;1.17;;;10.70;99.90;;;;;;5050668;28;20044;-66
2022/09/29 08:06:10;;;;;;;1.92;1.15;;;10.70;99.90;;;;;;5051208;28;20029;-67
2022/09/29 08:08:41;;;;;;;3.90;1.95;;;10.70;99.90;;;;;;5043796;28;20099;-67
2022/09/29 08:11:10;;;;;;;6.93;2.83;;;10.60;99.90;;;;;;5039044;28;20508;-67
2022/09/29 08:13:36;;;;;;;3.03;0.70;;;10.50;99.90;;;;;;5043099;28;20102;-67
2022/09/29 08:16:05;;;;;;;1.23;0.65;;;10.40;99.90;;;;;;5044324;28;20053;-67
2022/09/29 08:18:32;;;;;;;3.65;0.65;;;10.30;99.90;;;;;;5053335;28;20087;-67
2022/09/29 08:20:58;;;;;;;3.22;0.60;;;10.30;99.90;;;;;;5047907;28;20039;-67
2022/09/29 08:23:27;;;;;;;1.02;0.60;;;10.20;99.90;;;;;;5052207;28;20131;-67
2022/09/29 08:26:04;;;;;;;2.53;1.30;;;10.30;99.90;;;;;;5052546;28;20079;-67
2022/09/29 08:28:32;;;;;;;2.40;0.70;;;10.40;99.90;;;;;;5054232;28;20041;-67
2022/09/29 08:31:03;;;;;;;3.20;0.90;;;10.50;99.90;;;;;;5054428;28;20127;-68
2022/09/29 08:33:29;;;;;;;3.47;0.60;;;10.60;99.90;;;;;;5052874;28;20170;-68
2022/09/29 08:35:57;;;;;;;3.65;0.50;;;10.50;99.90;;;;;;5053720;28;20037;-67
2022/09/29 08:38:23;;;;;;;1.35;0.40;;;10.50;99.90;;;;;;5069546;28;20500;-68
2022/09/29 08:40:49;;;;;;;1.67;0.73;;;10.60;99.90;;;;;;5052991;28;20112;-67
2022/09/29 08:43:25;;;;;;;3.80;0.60;;;10.60;99.90;;;;;;5054366;28;20131;-67
2022/09/29 08:46:16;;;;;;;3.03;0.70;;;10.50;99.90;;;;;;5054169;28;20115;-67
2022/09/29 08:48:43;;;;;;;0.57;0.40;;;10.30;99.90;;;;;;5054552;28;20037;-67
2022/09/29 08:51:23;;;;;;;2.72;0.50;;;10.40;99.90;;;;;;5054293;28;20044;-68
2022/09/29 08:53:54;;;;;;;1.45;0.70;;;10.40;99.90;;;;;;5053530;28;20063;-68
2022/09/29 08:56:20;;;;;;;4.43;0.50;;;10.50;99.90;;;;;;5054109;28;20061;-68
2022/09/29 08:58:46;;;;;;;3.47;0.55;;;10.60;99.90;;;;;;5052455;28;20040;-67
2022/09/29 09:01:17;;;;;;;2.38;0.52;;;10.70;99.90;;;;;;5054085;28;20044;-67
2022/09/29 09:04:02;;;;;;;1.33;0.52;;;10.80;99.90;;;;;;5052827;28;20037;-67
2022/09/29 09:06:48;;;;;;;1.88;0.40;;;10.70;99.90;;;;;;5053811;28;20052;-67
2022/09/29 09:09:17;;;;;;;3.63;0.60;;;10.60;99.90;;;;;;5053953;28;20040;-67
2022/09/29 09:11:52;;;;;;;1.25;0.35;;;10.70;99.90;;;;;;5052761;28;20044;-67
2022/09/29 09:14:18;;;;;;;1.40;0.47;;;10.80;99.90;;;;;;5053258;28;20036;-67
2022/09/29 09:16:52;;;;;;;1.30;0.50;;;10.50;99.90;;;;;;5053732;28;20516;-68
2022/09/29 09:20:09;;;;;;;1.00;0.40;;;10.60;99.90;;;;;;5053782;28;20060;-67
2022/09/29 09:22:44;;;;;;;3.03;0.50;;;10.50;99.90;;;;;;5030387;28;20554;-67
2022/09/29 09:25:27;;;;;;;2.28;0.60;;;10.50;99.90;;;;;;5053556;28;20033;-68
2022/09/29 09:28:05;;;;;;;4.70;0.95;;;10.60;99.90;;;;;;5062933;28;20036;-67
2022/09/29 09:30:56;;;;;;;0.38;0.30;;;10.80;99.90;;;;;;5073476;28;20484;-68
2022/09/29 09:33:43;;;;;;;0.52;0.40;;;10.80;99.90;;;;;;5051878;28;20544;-68
2022/09/29 09:36:17;;;;;;;2.30;0.63;;;11.00;99.90;;;;;;5072239;28;20048;-67
2022/09/29 09:39:10;;;;;;;1.80;0.63;;;11.00;99.90;;;;;;5073556;28;20047;-67
2022/09/29 09:41:37;;;;;;;1.65;0.57;;;11.10;99.90;;;;;;5073302;28;20401;-67
2022/09/29 09:44:21;;;;;;;9.30;6.70;;;11.20;99.90;;;;;;5071866;28;20033;-67
2022/09/29 09:47:17;;;;;;;4.25;0.90;;;11.30;99.90;;;;;;5071662;28;20044;-67
2022/09/29 09:49:47;;;;;;;1.77;0.68;;;11.20;99.90;;;;;;5071992;28;20421;-67
2022/09/29 09:52:23;;;;;;;3.13;2.13;;;11.20;99.90;;;;;;5053523;28;20373;-67
2022/09/29 09:54:57;;;;;;;1.88;1.67;;;11.30;99.90;;;;;;5051901;28;20076;-67
2022/09/29 09:57:42;;;;;;;6.20;0.70;;;11.50;99.90;;;;;;5051242;28;20051;-67
2022/09/29 10:00:18;;;;;;;3.03;0.60;;;11.10;99.90;;;;;;5052811;28;20041;-67
2022/09/29 10:02:50;;;;;;;1.65;0.77;;;11.00;99.90;;;;;;5052441;28;20081;-67
2022/09/29 10:05:29;;;;;;;2.75;1.23;;;11.20;99.90;;;;;;5052737;28;20396;-67
2022/09/29 10:07:56;;;;;;;1.77;0.77;;;11.30;99.90;;;;;;5049994;28;20565;-67
2022/09/29 10:10:28;;;;;;;2.35;1.05;;;11.50;99.90;;;;;;5040323;28;20044;-68
2022/09/29 10:13:08;;;;;;;31.70;15.85;;;11.80;99.90;;;;;;5039530;28;20127;-67
2022/09/29 10:15:56;;;;;;;7.45;3.65;;;12.20;99.90;;;;;;5045951;28;20111;-68
2022/09/29 10:18:24;;;;;;;3.60;1.45;;;12.40;99.90;;;;;;5067750;28;20036;-67
2022/09/29 10:20:50;;;;;;;4.45;2.05;;;12.60;99.90;;;;;;5052420;28;20404;-68
2022/09/29 10:23:28;;;;;;;5.95;2.00;;;13.00;99.90;;;;;;5052269;28;20120;-67
2022/09/29 10:25:57;;;;;;;1.33;0.50;;;12.80;99.90;;;;;;5051352;28;20048;-67
2022/09/29 10:28:25;;;;;;;15.18;8.00;;;12.90;99.90;;;;;;5052612;28;20159;-68
2022/09/29 10:30:53;;;;;;;16.40;5.93;;;12.90;99.90;;;;;;5043151;28;20550;-67
2022/09/29 10:33:21;;;;;;;5.55;2.30;;;13.20;99.90;;;;;;5032027;28;20037;-67
2022/09/29 10:35:51;;;;;;;1.13;0.80;;;12.60;99.90;;;;;;5030279;28;20079;-67
2022/09/29 10:38:25;;;;;;;5.57;2.65;;;13.00;99.90;;;;;;5033970;28;20051;-67
2022/09/29 10:40:57;;;;;;;3.15;0.80;;;13.30;99.90;;;;;;5050362;28;20120;-67
2022/09/29 10:43:26;;;;;;;6.70;1.92;;;13.40;99.90;;;;;;5052047;28;20047;-67
2022/09/29 10:45:57;;;;;;;2.25;0.90;;;13.60;99.90;;;;;;5049292;28;20044;-69
2022/09/29 10:48:23;;;;;;;5.20;2.58;;;13.50;99.90;;;;;;5052322;28;20131;-67
2022/09/29 10:50:52;;;;;;;2.47;0.77;;;13.40;99.90;;;;;;5051974;28;20072;-67
2022/09/29 10:53:28;;;;;;;2.58;0.50;;;13.60;99.90;;;;;;5051922;28;20037;-67
2022/09/29 10:55:56;;;;;;;1.35;0.52;;;13.60;99.90;;;;;;5052038;28;20073;-67
2022/09/29 10:58:34;;;;;;;6.20;1.50;;;12.90;99.90;;;;;;5051726;28;20115;-67
2022/09/29 11:01:12;;;;;;;13.02;5.30;;;13.60;99.90;;;;;;5052002;28;20040;-68
2022/09/29 11:04:02;;;;;;;1.52;0.82;;;13.70;99.90;;;;;;5051699;28;20056;-68
2022/09/29 11:06:39;;;;;;;6.22;2.70;;;12.90;99.90;;;;;;5051355;28;20028;-67
2022/09/29 11:09:16;;;;;;;10.93;4.03;;;12.90;99.90;;;;;;5052409;28;20120;-67
2022/09/29 11:11:48;;;;;;;6.40;1.83;;;12.80;99.90;;;;;;5051486;28;20048;-67
2022/09/29 11:14:29;;;;;;;2.63;0.80;;;12.90;99.90;;;;;;5051520;28;20492;-68
2022/09/29 11:16:56;;;;;;;;;;;12.90;99.90;;;;;;5052270;28;20056;-68
2022/09/29 11:19:22;;;;;;;2.38;0.95;;;13.00;99.90;;;;;;5051791;28;19909;-67
2022/09/29 11:22:06;;;;;;;1.13;0.50;;;13.10;99.90;;;;;;5050365;28;20045;-68
2022/09/29 11:24:57;;;;;;;1.23;0.50;;;13.20;99.90;;;;;;5051445;28;20091;-68
2022/09/29 11:27:26;;;;;;;4.45;2.45;;;13.20;99.90;;;;;;5052064;28;20045;-68
2022/09/29 11:29:54;;;;;;;3.22;0.73;;;13.20;99.90;;;;;;5053188;28;20405;-68
2022/09/29 11:32:48;;;;;;;1.38;0.50;;;13.00;99.90;;;;;;5053610;28;20587;-68
2022/09/29 11:35:32;;;;;;;1.15;0.60;;;13.00;99.90;;;;;;5052700;28;20048;-67
2022/09/29 11:38:18;;;;;;;2.35;0.70;;;13.10;99.90;;;;;;5051554;28;20052;-68
2022/09/29 11:41:21;;;;;;;5.03;1.98;;;13.30;99.90;;;;;;5061414;28;20377;-68
2022/09/29 11:43:53;;;;;;;6.20;1.70;;;13.30;99.90;;;;;;5064306;28;20471;-68
2022/09/29 11:46:34;;;;;;;1.73;0.63;;;13.30;99.90;;;;;;5073878;28;20098;-68
2022/09/29 11:49:18;;;;;;;5.35;1.23;;;13.20;99.90;;;;;;5075718;28;20098;-67
2022/09/29 11:52:05;;;;;;;2.58;0.63;;;13.40;99.90;;;;;;5075404;28;20463;-68
2022/09/29 11:54:45;;;;;;;2.17;0.40;;;13.20;99.90;;;;;;5075584;28;20040;-68
2022/09/29 11:57:30;;;;;;;8.18;2.85;;;13.00;99.90;;;;;;5075447;28;20075;-67
2022/09/29 12:00:08;;;;;;;6.53;1.92;;;13.10;99.90;;;;;;5070446;28;20044;-68
2022/09/29 12:03:02;;;;;;;4.97;2.13;;;13.20;99.90;;;;;;5045379;28;20041;-67
2022/09/29 12:05:51;;;;;;;16.42;8.30;;;13.10;99.90;;;;;;5042601;28;20544;-69
2022/09/29 12:08:45;;;;;;;10.20;4.82;;;13.20;99.90;;;;;;5036907;28;20045;-68
2022/09/29 12:11:38;;;;;;;4.85;3.05;;;13.20;99.90;;;;;;5034343;28;20505;-68
2022/09/29 12:14:28;;;;;;;3.83;2.10;;;13.00;99.90;;;;;;5034062;28;20033;-68
2022/09/29 12:16:58;;;;;;;1.48;0.50;;;13.00;99.90;;;;;;5032308;28;20075;-68
2022/09/29 12:19:30;;;;;;;;;;;12.80;99.90;;;;;;5032151;28;20128;-68
2022/09/29 12:22:00;;;;;;;2.55;1.50;;;12.90;99.90;;;;;;5048852;28;20017;-67
2022/09/29 12:24:42;;;;;;;2.43;0.50;;;13.00;99.90;;;;;;5032969;28;20033;-68
2022/09/29 12:27:21;;;;;;;1.63;0.77;;;12.70;99.90;;;;;;5038265;28;20631;-68
2022/09/29 12:29:56;;;;;;;5.15;0.30;;;12.70;99.90;;;;;;5047576;28;20054;-68
2022/09/29 12:32:43;;;;;;;3.33;0.55;;;12.60;99.90;;;;;;5054922;28;20378;-68
2022/09/29 12:35:38;;;;;;;0.85;0.32;;;12.60;99.90;;;;;;5070006;28;20041;-68
2022/09/29 12:38:16;;;;;;;1.48;0.35;;;12.70;99.90;;;;;;5055245;28;20131;-68
2022/09/29 12:41:13;;;;;;;2.95;0.55;;;12.80;99.90;;;;;;5054164;28;20044;-68
2022/09/29 12:44:05;;;;;;;1.73;0.40;;;13.00;99.90;;;;;;5052502;28;20503;-67
2022/09/29 12:46:44;;;;;;;4.00;1.63;;;13.00;99.90;;;;;;5052609;28;20037;-68
2022/09/29 12:49:19;;;;;;;2.47;1.20;;;13.20;99.90;;;;;;5054215;28;20041;-68
2022/09/29 12:51:49;;;;;;;2.90;0.80;;;13.50;99.90;;;;;;5053090;28;20036;-69
2022/09/29 12:54:30;;;;;;;1.35;0.45;;;13.40;99.90;;;;;;5052916;28;20053;-68
2022/09/29 12:57:10;;;;;;;1.52;0.40;;;13.40;99.90;;;;;;5052016;28;20068;-68
2022/09/29 12:59:40;;;;;;;0.60;0.40;;;13.40;99.90;;;;;;5053535;28;20127;-68
2022/09/29 13:02:40;;;;;;;1.75;0.70;;;13.40;99.90;;;;;;5053412;28;20124;-68
2022/09/29 13:05:11;;;;;;;3.20;0.75;;;13.30;99.90;;;;;;5053488;28;20029;-69
2022/09/29 13:07:51;;;;;;;3.33;1.05;;;13.40;99.90;;;;;;5053538;28;20036;-69
2022/09/29 13:10:38;;;;;;;0.68;0.52;;;14.00;99.90;;;;;;5053991;28;20052;-68
2022/09/29 13:13:43;;;;;;;0.93;0.40;;;14.30;99.90;;;;;;5048312;28;20041;-68
2022/09/29 13:16:23;;;;;;;0.40;0.40;;;14.10;99.90;;;;;;5031655;28;20041;-68
2022/09/29 13:19:12;;;;;;;4.75;0.75;;;14.10;99.90;;;;;;5047375;28;20041;-70